sensor_id;sensor_type;location;lat;lon;timestamp;temperature;humidity
61374;DHT22;47242;48.158;-1.586;2023-07-02T04:31:12;15.40;74.00
61374;DHT22;47242;48.158;-1.586;2023-07-02T04:33:37;15.30;74.20
61374;DHT22;47242;48.158;-1.586;2023-07-02T04:36:04;15.30;74.10
61374;DHT22;47242;48.158;-1.586;2023-07-02T04:38:29;15.30;74.00
61374;DHT22;47242;48.158;-1.586;2023-07-02T04:40:55;15.30;74.20
61374;DHT22;47242;48.158;-1.586;2023-07-02T04:43:27;15.40;74.00
61374;DHT22;47242;48.158;-1.586;2023-07-02T04:45:55;15.40;74.30
61374;DHT22;47242;48.158;-1.586;2023-07-02T04:48:21;15.40;74.20
61374;DHT22;47242;48.158;-1.586;2023-07-02T04:50:46;15.40;74.10
61374;DHT22;47242;48.158;-1.586;2023-07-02T04:53:12;15.40;74.40
61374;DHT22;47242;48.158;-1.586;2023-07-02T04:55:38;15.40;74.50
61374;DHT22;47242;48.158;-1.586;2023-07-02T04:58:03;15.40;74.70
61374;DHT22;47242;48.158;-1.586;2023-07-02T05:00:29;15.30;74.50
61374;DHT22;47242;48.158;-1.586;2023-07-02T05:02:55;15.40;74.70
61374;DHT22;47242;48.158;-1.586;2023-07-02T05:05:20;15.40;74.70
61374;DHT22;47242;48.158;-1.586;2023-07-02T05:07:46;15.40;74.80
61374;DHT22;47242;48.158;-1.586;2023-07-02T05:10:12;15.40;74.80
61374;DHT22;47242;48.158;-1.586;2023-07-02T05:12:37;15.40;75.10
61374;DHT22;47242;48.158;-1.586;2023-07-02T05:15:03;15.40;75.10
61374;DHT22;47242;48.158;-1.586;2023-07-02T05:17:29;15.40;75.40
61374;DHT22;47242;48.158;-1.586;2023-07-02T05:19:55;15.40;75.50
61374;DHT22;47242;48.158;-1.586;2023-07-02T05:22:20;15.50;75.40
61374;DHT22;47242;48.158;-1.586;2023-07-02T05:24:46;15.50;75.50
61374;DHT22;47242;48.158;-1.586;2023-07-02T05:27:12;15.50;75.90
61374;DHT22;47242;48.158;-1.586;2023-07-02T05:29:39;15.50;75.70
61374;DHT22;47242;48.158;-1.586;2023-07-02T05:32:05;15.50;76.00
61374;DHT22;47242;48.158;-1.586;2023-07-02T05:34:30;15.60;76.00
61374;DHT22;47242;48.158;-1.586;2023-07-02T05:36:56;15.60;75.90
61374;DHT22;47242;48.158;-1.586;2023-07-02T05:39:22;15.70;75.70
61374;DHT22;47242;48.158;-1.586;2023-07-02T05:41:47;15.80;75.80
61374;DHT22;47242;48.158;-1.586;2023-07-02T05:44:13;15.80;76.00
61374;DHT22;47242;48.158;-1.586;2023-07-02T05:46:39;15.80;75.70
61374;DHT22;47242;48.158;-1.586;2023-07-02T05:49:05;15.80;76.30
61374;DHT22;47242;48.158;-1.586;2023-07-02T05:51:31;15.80;76.20
61374;DHT22;47242;48.158;-1.586;2023-07-02T05:53:57;15.90;76.30
61374;DHT22;47242;48.158;-1.586;2023-07-02T05:56:23;15.90;76.30
61374;DHT22;47242;48.158;-1.586;2023-07-02T05:58:49;15.90;76.10
61374;DHT22;47242;48.158;-1.586;2023-07-02T06:01:15;16.00;76.10
61374;DHT22;47242;48.158;-1.586;2023-07-02T06:03:41;16.10;76.00
61374;DHT22;47242;48.158;-1.586;2023-07-02T06:06:08;16.10;76.00
61374;DHT22;47242;48.158;-1.586;2023-07-02T06:08:34;16.20;75.90
61374;DHT22;47242;48.158;-1.586;2023-07-02T06:10:59;16.20;75.90
61374;DHT22;47242;48.158;-1.586;2023-07-02T06:13:25;16.30;75.80
61374;DHT22;47242;48.158;-1.586;2023-07-02T06:15:51;16.30;75.90
61374;DHT22;47242;48.158;-1.586;2023-07-02T06:18:17;16.30;76.00
61374;DHT22;47242;48.158;-1.586;2023-07-02T06:20:43;16.30;76.30
61374;DHT22;47242;48.158;-1.586;2023-07-02T06:23:09;16.40;75.70
61374;DHT22;47242;48.158;-1.586;2023-07-02T06:25:34;16.50;76.00
61374;DHT22;47242;48.158;-1.586;2023-07-02T06:28:00;16.50;75.70
61374;DHT22;47242;48.158;-1.586;2023-07-02T06:30:26;16.60;75.60
61374;DHT22;47242;48.158;-1.586;2023-07-02T06:32:52;16.70;75.40
61374;DHT22;47242;48.158;-1.586;2023-07-02T06:35:17;16.70;75.20
61374;DHT22;47242;48.158;-1.586;2023-07-02T06:37:43;16.70;75.10
61374;DHT22;47242;48.158;-1.586;2023-07-02T06:40:10;16.80;75.00
61374;DHT22;47242;48.158;-1.586;2023-07-02T06:42:35;16.80;75.00
61374;DHT22;47242;48.158;-1.586;2023-07-02T06:45:02;16.90;75.00
61374;DHT22;47242;48.158;-1.586;2023-07-02T06:47:28;17.00;74.90
61374;DHT22;47242;48.158;-1.586;2023-07-02T06:49:53;17.00;74.50
61374;DHT22;47242;48.158;-1.586;2023-07-02T06:52:19;17.10;74.30
61374;DHT22;47242;48.158;-1.586;2023-07-02T06:54:45;17.10;74.20
61374;DHT22;47242;48.158;-1.586;2023-07-02T06:57:12;17.10;74.10
61374;DHT22;47242;48.158;-1.586;2023-07-02T06:59:38;17.20;74.10
61374;DHT22;47242;48.158;-1.586;2023-07-02T07:02:04;17.20;73.90
61374;DHT22;47242;48.158;-1.586;2023-07-02T07:04:29;17.30;73.70
61374;DHT22;47242;48.158;-1.586;2023-07-02T07:06:55;17.30;73.40
61374;DHT22;47242;48.158;-1.586;2023-07-02T07:09:21;17.40;73.40
61374;DHT22;47242;48.158;-1.586;2023-07-02T07:11:47;17.50;73.10
61374;DHT22;47242;48.158;-1.586;2023-07-02T07:14:13;17.70;72.80
61374;DHT22;47242;48.158;-1.586;2023-07-02T07:16:38;17.70;73.10
61374;DHT22;47242;48.158;-1.586;2023-07-02T07:19:04;17.80;72.40
61374;DHT22;47242;48.158;-1.586;2023-07-02T07:21:30;17.90;72.00
61374;DHT22;47242;48.158;-1.586;2023-07-02T07:23:56;18.00;71.40
61374;DHT22;47242;48.158;-1.586;2023-07-02T07:26:22;18.20;71.20
61374;DHT22;47242;48.158;-1.586;2023-07-02T07:28:47;18.30;70.60
61374;DHT22;47242;48.158;-1.586;2023-07-02T07:31:13;18.40;69.80
61374;DHT22;47242;48.158;-1.586;2023-07-02T07:33:38;18.80;68.80
61374;DHT22;47242;48.158;-1.586;2023-07-02T07:36:04;18.90;68.50
61374;DHT22;47242;48.158;-1.586;2023-07-02T07:38:30;19.00;68.20
61374;DHT22;47242;48.158;-1.586;2023-07-02T07:40:55;19.40;66.60
61374;DHT22;47242;48.158;-1.586;2023-07-02T07:43:21;19.80;66.60
61374;DHT22;47242;48.158;-1.586;2023-07-02T07:45:47;20.50;63.80
61374;DHT22;47242;48.158;-1.586;2023-07-02T07:48:12;21.10;61.20
61374;DHT22;47242;48.158;-1.586;2023-07-02T07:50:38;21.50;60.00
61374;DHT22;47242;48.158;-1.586;2023-07-02T07:53:04;22.20;58.40
61374;DHT22;47242;48.158;-1.586;2023-07-02T07:55:29;24.30;54.00
61374;DHT22;47242;48.158;-1.586;2023-07-02T07:57:55;25.40;49.60
61374;DHT22;47242;48.158;-1.586;2023-07-02T08:00:20;25.10;47.90
61374;DHT22;47242;48.158;-1.586;2023-07-02T08:02:46;26.80;46.00
61374;DHT22;47242;48.158;-1.586;2023-07-02T08:05:12;28.50;41.90
61374;DHT22;47242;48.158;-1.586;2023-07-02T08:07:39;30.30;38.80
61374;DHT22;47242;48.158;-1.586;2023-07-02T08:10:06;31.80;37.50
61374;DHT22;47242;48.158;-1.586;2023-07-02T08:12:33;30.20;37.50
61374;DHT22;47242;48.158;-1.586;2023-07-02T08:14:59;28.20;39.90
61374;DHT22;47242;48.158;-1.586;2023-07-02T08:17:24;26.40;43.60
61374;DHT22;47242;48.158;-1.586;2023-07-02T08:19:50;25.30;44.60
61374;DHT22;47242;48.158;-1.586;2023-07-02T08:22:16;24.40;47.20
61374;DHT22;47242;48.158;-1.586;2023-07-02T08:24:41;25.00;47.20
61374;DHT22;47242;48.158;-1.586;2023-07-02T08:27:07;25.00;46.50
61374;DHT22;47242;48.158;-1.586;2023-07-02T08:29:32;24.30;48.10
61374;DHT22;47242;48.158;-1.586;2023-07-02T08:31:58;26.80;44.30
61374;DHT22;47242;48.158;-1.586;2023-07-02T08:34:24;27.10;41.90
61374;DHT22;47242;48.158;-1.586;2023-07-02T08:36:50;27.50;41.70
61374;DHT22;47242;48.158;-1.586;2023-07-02T08:39:17;29.50;38.40
61374;DHT22;47242;48.158;-1.586;2023-07-02T08:41:46;29.90;35.70
61374;DHT22;47242;48.158;-1.586;2023-07-02T08:44:12;28.70;37.70
61374;DHT22;47242;48.158;-1.586;2023-07-02T08:46:40;27.50;40.70
61374;DHT22;47242;48.158;-1.586;2023-07-02T08:49:10;26.10;41.90
61374;DHT22;47242;48.158;-1.586;2023-07-02T08:51:46;26.10;42.30
61374;DHT22;47242;48.158;-1.586;2023-07-02T08:54:12;28.00;40.50
61374;DHT22;47242;48.158;-1.586;2023-07-02T08:56:38;29.70;38.00
61374;DHT22;47242;48.158;-1.586;2023-07-02T08:59:07;30.50;35.60
61374;DHT22;47242;48.158;-1.586;2023-07-02T09:01:51;29.50;36.50
61374;DHT22;47242;48.158;-1.586;2023-07-02T09:04:21;28.70;37.60
61374;DHT22;47242;48.158;-1.586;2023-07-02T09:06:49;30.00;36.80
61374;DHT22;47242;48.158;-1.586;2023-07-02T09:09:15;30.50;34.70
61374;DHT22;47242;48.158;-1.586;2023-07-02T09:11:50;30.00;33.20
61374;DHT22;47242;48.158;-1.586;2023-07-02T09:17:01;30.80;35.00
61374;DHT22;47242;48.158;-1.586;2023-07-02T09:19:28;32.10;33.50
61374;DHT22;47242;48.158;-1.586;2023-07-02T09:21:53;33.00;31.70
61374;DHT22;47242;48.158;-1.586;2023-07-02T09:24:22;33.40;31.20
61374;DHT22;47242;48.158;-1.586;2023-07-02T09:26:54;33.70;28.40
61374;DHT22;47242;48.158;-1.586;2023-07-02T09:31:54;32.40;30.60
61374;DHT22;47242;48.158;-1.586;2023-07-02T09:34:29;31.10;32.50
61374;DHT22;47242;48.158;-1.586;2023-07-02T09:36:59;29.90;34.20
61374;DHT22;47242;48.158;-1.586;2023-07-02T09:39:27;29.00;34.70
61374;DHT22;47242;48.158;-1.586;2023-07-02T09:41:55;28.70;35.60
61374;DHT22;47242;48.158;-1.586;2023-07-02T09:44:25;29.50;35.70
61374;DHT22;47242;48.158;-1.586;2023-07-02T09:47:07;30.80;34.10
61374;DHT22;47242;48.158;-1.586;2023-07-02T09:49:49;32.10;32.00
61374;DHT22;47242;48.158;-1.586;2023-07-02T09:52:16;32.30;30.90
61374;DHT22;47242;48.158;-1.586;2023-07-02T09:54:42;30.80;31.70
61374;DHT22;47242;48.158;-1.586;2023-07-02T09:57:08;29.40;33.70
61374;DHT22;47242;48.158;-1.586;2023-07-02T09:59:34;28.70;36.30
61374;DHT22;47242;48.158;-1.586;2023-07-02T10:02:00;28.30;36.40
61374;DHT22;47242;48.158;-1.586;2023-07-02T10:04:26;27.90;36.70
61374;DHT22;47242;48.158;-1.586;2023-07-02T10:06:53;27.80;36.30
61374;DHT22;47242;48.158;-1.586;2023-07-02T10:09:21;27.70;36.40
61374;DHT22;47242;48.158;-1.586;2023-07-02T10:11:47;28.90;37.00
61374;DHT22;47242;48.158;-1.586;2023-07-02T10:14:13;29.10;35.00
61374;DHT22;47242;48.158;-1.586;2023-07-02T10:16:53;29.30;35.70
61374;DHT22;47242;48.158;-1.586;2023-07-02T10:19:19;29.10;34.80
61374;DHT22;47242;48.158;-1.586;2023-07-02T10:21:45;29.30;35.20
61374;DHT22;47242;48.158;-1.586;2023-07-02T10:24:17;28.70;35.20
61374;DHT22;47242;48.158;-1.586;2023-07-02T10:29:19;27.80;37.70
61374;DHT22;47242;48.158;-1.586;2023-07-02T10:31:52;28.10;37.30
61374;DHT22;47242;48.158;-1.586;2023-07-02T10:34:35;28.60;37.50
61374;DHT22;47242;48.158;-1.586;2023-07-02T10:37:01;29.20;37.20
61374;DHT22;47242;48.158;-1.586;2023-07-02T10:39:28;29.60;37.10
61374;DHT22;47242;48.158;-1.586;2023-07-02T10:42:09;29.90;35.30
61374;DHT22;47242;48.158;-1.586;2023-07-02T10:44:47;29.10;33.60
61374;DHT22;47242;48.158;-1.586;2023-07-02T10:47:13;28.70;33.80
61374;DHT22;47242;48.158;-1.586;2023-07-02T10:49:39;28.30;35.50
61374;DHT22;47242;48.158;-1.586;2023-07-02T10:52:05;27.60;34.50
61374;DHT22;47242;48.158;-1.586;2023-07-02T10:54:47;27.60;36.70
61374;DHT22;47242;48.158;-1.586;2023-07-02T10:57:16;27.60;37.70
61374;DHT22;47242;48.158;-1.586;2023-07-02T10:59:45;27.60;38.00
61374;DHT22;47242;48.158;-1.586;2023-07-02T11:02:13;27.90;37.50
61374;DHT22;47242;48.158;-1.586;2023-07-02T11:04:42;27.90;37.00
61374;DHT22;47242;48.158;-1.586;2023-07-02T11:07:10;27.90;36.50
61374;DHT22;47242;48.158;-1.586;2023-07-02T11:09:36;27.90;37.30
61374;DHT22;47242;48.158;-1.586;2023-07-02T11:12:02;27.80;37.50
61374;DHT22;47242;48.158;-1.586;2023-07-02T11:14:34;27.90;36.70
61374;DHT22;47242;48.158;-1.586;2023-07-02T11:17:04;27.80;35.90
61374;DHT22;47242;48.158;-1.586;2023-07-02T11:19:34;27.60;36.30
61374;DHT22;47242;48.158;-1.586;2023-07-02T11:22:01;27.40;37.30
61374;DHT22;47242;48.158;-1.586;2023-07-02T11:24:35;27.30;38.20
61374;DHT22;47242;48.158;-1.586;2023-07-02T11:27:02;27.30;37.80
61374;DHT22;47242;48.158;-1.586;2023-07-02T11:29:29;27.20;37.30
61374;DHT22;47242;48.158;-1.586;2023-07-02T11:32:04;26.90;37.10
61374;DHT22;47242;48.158;-1.586;2023-07-02T11:34:29;26.70;37.90
61374;DHT22;47242;48.158;-1.586;2023-07-02T11:37:09;26.30;38.50
61374;DHT22;47242;48.158;-1.586;2023-07-02T11:39:42;25.90;39.20
61374;DHT22;47242;48.158;-1.586;2023-07-02T11:42:11;25.80;40.50
61374;DHT22;47242;48.158;-1.586;2023-07-02T11:44:37;25.70;40.60
61374;DHT22;47242;48.158;-1.586;2023-07-02T11:47:02;25.80;41.20
61374;DHT22;47242;48.158;-1.586;2023-07-02T11:49:28;25.90;41.70
61374;DHT22;47242;48.158;-1.586;2023-07-02T11:51:54;26.10;40.90
61374;DHT22;47242;48.158;-1.586;2023-07-02T11:54:20;26.30;41.00
61374;DHT22;47242;48.158;-1.586;2023-07-02T11:56:46;26.30;41.70
61374;DHT22;47242;48.158;-1.586;2023-07-02T11:59:11;26.50;41.10
61374;DHT22;47242;48.158;-1.586;2023-07-02T12:01:37;26.40;40.00
61374;DHT22;47242;48.158;-1.586;2023-07-02T12:04:03;26.30;40.50
61374;DHT22;47242;48.158;-1.586;2023-07-02T12:06:29;26.10;40.90
61374;DHT22;47242;48.158;-1.586;2023-07-02T12:08:54;25.90;41.00
61374;DHT22;47242;48.158;-1.586;2023-07-02T12:11:20;25.70;42.10
61374;DHT22;47242;48.158;-1.586;2023-07-02T12:13:46;25.50;42.10
61374;DHT22;47242;48.158;-1.586;2023-07-02T12:16:11;25.40;42.30
61374;DHT22;47242;48.158;-1.586;2023-07-02T12:18:37;25.30;42.30
61374;DHT22;47242;48.158;-1.586;2023-07-02T12:21:03;25.50;42.30
61374;DHT22;47242;48.158;-1.586;2023-07-02T12:23:28;25.50;40.90
61374;DHT22;47242;48.158;-1.586;2023-07-02T12:25:54;25.60;41.80
61374;DHT22;47242;48.158;-1.586;2023-07-02T12:28:22;25.60;41.70
61374;DHT22;47242;48.158;-1.586;2023-07-02T12:30:48;25.40;42.30
61374;DHT22;47242;48.158;-1.586;2023-07-02T12:33:14;25.30;41.70
61374;DHT22;47242;48.158;-1.586;2023-07-02T12:35:40;25.20;42.50
61374;DHT22;47242;48.158;-1.586;2023-07-02T12:38:05;25.10;42.60
61374;DHT22;47242;48.158;-1.586;2023-07-02T12:40:33;25.10;44.00
61374;DHT22;47242;48.158;-1.586;2023-07-02T12:42:59;25.20;43.90
61374;DHT22;47242;48.158;-1.586;2023-07-02T12:45:25;25.20;43.80
61374;DHT22;47242;48.158;-1.586;2023-07-02T12:47:51;25.20;42.40
61374;DHT22;47242;48.158;-1.586;2023-07-02T12:50:16;25.20;43.90
61374;DHT22;47242;48.158;-1.586;2023-07-02T12:52:42;25.20;43.90
61374;DHT22;47242;48.158;-1.586;2023-07-02T12:55:09;25.20;44.00
61374;DHT22;47242;48.158;-1.586;2023-07-02T12:57:34;25.30;43.30
61374;DHT22;47242;48.158;-1.586;2023-07-02T13:00:00;25.20;42.90
61374;DHT22;47242;48.158;-1.586;2023-07-02T13:02:26;25.30;43.60
61374;DHT22;47242;48.158;-1.586;2023-07-02T13:04:52;25.60;43.20
61374;DHT22;47242;48.158;-1.586;2023-07-02T13:07:18;25.70;44.00
61374;DHT22;47242;48.158;-1.586;2023-07-02T13:09:44;25.80;43.30
61374;DHT22;47242;48.158;-1.586;2023-07-02T13:12:12;25.80;42.80
61374;DHT22;47242;48.158;-1.586;2023-07-02T13:14:38;25.70;43.10
61374;DHT22;47242;48.158;-1.586;2023-07-02T13:17:04;25.60;43.30
61374;DHT22;47242;48.158;-1.586;2023-07-02T13:19:31;25.70;42.70
61374;DHT22;47242;48.158;-1.586;2023-07-02T13:21:56;25.80;42.80
61374;DHT22;47242;48.158;-1.586;2023-07-02T13:24:22;25.90;42.60
61374;DHT22;47242;48.158;-1.586;2023-07-02T13:26:48;26.00;43.10
61374;DHT22;47242;48.158;-1.586;2023-07-02T13:29:14;25.90;43.20
61374;DHT22;47242;48.158;-1.586;2023-07-02T13:31:39;26.00;43.00
61374;DHT22;47242;48.158;-1.586;2023-07-02T13:34:05;25.90;42.70
61374;DHT22;47242;48.158;-1.586;2023-07-02T13:36:31;25.70;43.40
61374;DHT22;47242;48.158;-1.586;2023-07-02T13:38:57;25.40;43.60
61374;DHT22;47242;48.158;-1.586;2023-07-02T13:41:23;25.30;43.80
61374;DHT22;47242;48.158;-1.586;2023-07-02T13:43:49;25.10;44.50
61374;DHT22;47242;48.158;-1.586;2023-07-02T13:46:15;25.00;44.10
61374;DHT22;47242;48.158;-1.586;2023-07-02T13:48:40;24.70;45.00
61374;DHT22;47242;48.158;-1.586;2023-07-02T13:51:06;24.60;45.10
61374;DHT22;47242;48.158;-1.586;2023-07-02T13:53:33;24.50;45.30
61374;DHT22;47242;48.158;-1.586;2023-07-02T13:55:59;24.50;45.50
61374;DHT22;47242;48.158;-1.586;2023-07-02T13:58:25;24.50;45.50
61374;DHT22;47242;48.158;-1.586;2023-07-02T14:00:50;24.60;45.20
61374;DHT22;47242;48.158;-1.586;2023-07-02T14:03:16;24.60;45.80
61374;DHT22;47242;48.158;-1.586;2023-07-02T14:05:42;24.60;44.60
61374;DHT22;47242;48.158;-1.586;2023-07-02T14:08:09;24.70;45.00
61374;DHT22;47242;48.158;-1.586;2023-07-02T14:10:34;24.70;46.20
61374;DHT22;47242;48.158;-1.586;2023-07-02T14:13:00;24.70;45.80
61374;DHT22;47242;48.158;-1.586;2023-07-02T14:15:26;24.60;45.90
61374;DHT22;47242;48.158;-1.586;2023-07-02T14:17:53;24.60;45.70
61374;DHT22;47242;48.158;-1.586;2023-07-02T14:20:20;24.60;46.10
61374;DHT22;47242;48.158;-1.586;2023-07-02T14:22:45;24.50;46.20
61374;DHT22;47242;48.158;-1.586;2023-07-02T14:25:11;24.40;44.90
61374;DHT22;47242;48.158;-1.586;2023-07-02T14:27:37;24.40;45.60
61374;DHT22;47242;48.158;-1.586;2023-07-02T14:30:03;24.40;46.60
61374;DHT22;47242;48.158;-1.586;2023-07-02T14:32:35;24.40;46.20
61374;DHT22;47242;48.158;-1.586;2023-07-02T14:35:02;24.30;46.40
61374;DHT22;47242;48.158;-1.586;2023-07-02T14:37:28;24.10;46.30
61374;DHT22;47242;48.158;-1.586;2023-07-02T14:39:54;24.00;46.60
61374;DHT22;47242;48.158;-1.586;2023-07-02T14:42:20;23.90;46.90
61374;DHT22;47242;48.158;-1.586;2023-07-02T14:44:45;23.90;47.30
61374;DHT22;47242;48.158;-1.586;2023-07-02T14:47:11;24.00;47.10
61374;DHT22;47242;48.158;-1.586;2023-07-02T14:49:37;23.90;47.40
61374;DHT22;47242;48.158;-1.586;2023-07-02T14:52:03;23.90;47.30
61374;DHT22;47242;48.158;-1.586;2023-07-02T14:54:29;23.90;48.10
61374;DHT22;47242;48.158;-1.586;2023-07-02T14:56:55;23.80;48.80
61374;DHT22;47242;48.158;-1.586;2023-07-02T14:59:21;23.80;48.60
61374;DHT22;47242;48.158;-1.586;2023-07-02T15:01:46;23.80;48.30
61374;DHT22;47242;48.158;-1.586;2023-07-02T15:04:12;23.80;48.70
61374;DHT22;47242;48.158;-1.586;2023-07-02T15:06:38;23.70;48.50
61374;DHT22;47242;48.158;-1.586;2023-07-02T15:09:04;23.60;49.20
61374;DHT22;47242;48.158;-1.586;2023-07-02T15:11:32;23.70;49.30
61374;DHT22;47242;48.158;-1.586;2023-07-02T15:13:58;23.60;48.80
61374;DHT22;47242;48.158;-1.586;2023-07-02T15:16:24;23.60;49.20
61374;DHT22;47242;48.158;-1.586;2023-07-02T15:18:50;23.60;49.00
61374;DHT22;47242;48.158;-1.586;2023-07-02T15:21:16;23.70;49.80
61374;DHT22;47242;48.158;-1.586;2023-07-02T15:23:43;23.80;49.60
61374;DHT22;47242;48.158;-1.586;2023-07-02T15:26:09;23.80;49.30
61374;DHT22;47242;48.158;-1.586;2023-07-02T15:28:35;23.80;48.50
61374;DHT22;47242;48.158;-1.586;2023-07-02T15:31:07;23.70;49.20
61374;DHT22;47242;48.158;-1.586;2023-07-02T15:33:33;23.70;49.00
61374;DHT22;47242;48.158;-1.586;2023-07-02T15:36:20;23.70;48.40
61374;DHT22;47242;48.158;-1.586;2023-07-02T15:38:47;23.90;48.80
61374;DHT22;47242;48.158;-1.586;2023-07-02T15:41:15;24.20;48.60
61374;DHT22;47242;48.158;-1.586;2023-07-02T15:43:42;24.40;48.20
61374;DHT22;47242;48.158;-1.586;2023-07-02T15:46:10;24.40;47.60
61374;DHT22;47242;48.158;-1.586;2023-07-02T15:48:36;24.40;47.70
61374;DHT22;47242;48.158;-1.586;2023-07-02T15:51:03;24.40;47.70
61374;DHT22;47242;48.158;-1.586;2023-07-02T15:53:31;24.40;47.50
61374;DHT22;47242;48.158;-1.586;2023-07-02T15:55:57;24.30;46.80
61374;DHT22;47242;48.158;-1.586;2023-07-02T15:58:24;24.20;47.70
61374;DHT22;47242;48.158;-1.586;2023-07-02T16:00:51;24.30;48.60
61374;DHT22;47242;48.158;-1.586;2023-07-02T16:03:16;24.10;48.10
61374;DHT22;47242;48.158;-1.586;2023-07-02T16:05:42;24.00;48.50
61374;DHT22;47242;48.158;-1.586;2023-07-02T16:08:07;24.00;49.10
61374;DHT22;47242;48.158;-1.586;2023-07-02T16:10:33;24.10;49.30
61374;DHT22;47242;48.158;-1.586;2023-07-02T16:12:59;24.20;48.80
61374;DHT22;47242;48.158;-1.586;2023-07-02T16:15:25;24.10;48.80
61374;DHT22;47242;48.158;-1.586;2023-07-02T16:17:50;24.00;49.70
61374;DHT22;47242;48.158;-1.586;2023-07-02T16:20:18;23.90;49.20
61374;DHT22;47242;48.158;-1.586;2023-07-02T16:22:44;23.90;49.30
61374;DHT22;47242;48.158;-1.586;2023-07-02T16:25:10;24.00;50.00
61374;DHT22;47242;48.158;-1.586;2023-07-02T16:27:51;24.10;49.80
61374;DHT22;47242;48.158;-1.586;2023-07-02T16:30:17;24.10;49.10
61374;DHT22;47242;48.158;-1.586;2023-07-02T16:32:42;24.10;49.30
61374;DHT22;47242;48.158;-1.586;2023-07-02T16:35:08;24.10;49.40
61374;DHT22;47242;48.158;-1.586;2023-07-02T16:37:34;24.00;49.60
61374;DHT22;47242;48.158;-1.586;2023-07-02T16:39:59;24.00;49.40
61374;DHT22;47242;48.158;-1.586;2023-07-02T16:42:26;23.90;49.60
61374;DHT22;47242;48.158;-1.586;2023-07-02T16:44:52;23.80;49.80
61374;DHT22;47242;48.158;-1.586;2023-07-02T16:47:18;23.80;50.70
61374;DHT22;47242;48.158;-1.586;2023-07-02T16:49:43;23.60;50.40
61374;DHT22;47242;48.158;-1.586;2023-07-02T16:52:12;23.50;50.90
61374;DHT22;47242;48.158;-1.586;2023-07-02T16:54:38;23.40;50.90
61374;DHT22;47242;48.158;-1.586;2023-07-02T16:57:04;23.40;51.40
61374;DHT22;47242;48.158;-1.586;2023-07-02T16:59:37;23.50;51.20
61374;DHT22;47242;48.158;-1.586;2023-07-02T17:02:05;23.60;50.80
61374;DHT22;47242;48.158;-1.586;2023-07-02T17:04:32;23.50;50.70
61374;DHT22;47242;48.158;-1.586;2023-07-02T17:06:59;23.50;51.00
61374;DHT22;47242;48.158;-1.586;2023-07-02T17:12:02;23.20;51.90
61374;DHT22;47242;48.158;-1.586;2023-07-02T17:14:30;23.00;51.90
61374;DHT22;47242;48.158;-1.586;2023-07-02T17:17:01;23.00;52.40
61374;DHT22;47242;48.158;-1.586;2023-07-02T17:19:40;23.00;52.60
61374;DHT22;47242;48.158;-1.586;2023-07-02T17:22:11;23.10;52.50
61374;DHT22;47242;48.158;-1.586;2023-07-02T17:24:42;23.10;52.00
61374;DHT22;47242;48.158;-1.586;2023-07-02T17:27:17;23.00;52.20
61374;DHT22;47242;48.158;-1.586;2023-07-02T17:29:48;22.90;52.90
61374;DHT22;47242;48.158;-1.586;2023-07-02T17:32:14;22.90;53.30
61374;DHT22;47242;48.158;-1.586;2023-07-02T17:34:39;22.80;54.50
61374;DHT22;47242;48.158;-1.586;2023-07-02T17:37:07;22.70;55.60
61374;DHT22;47242;48.158;-1.586;2023-07-02T17:39:40;22.80;55.50
61374;DHT22;47242;48.158;-1.586;2023-07-02T17:42:10;22.80;54.70
61374;DHT22;47242;48.158;-1.586;2023-07-02T17:44:38;22.80;55.20
61374;DHT22;47242;48.158;-1.586;2023-07-02T17:47:06;22.80;55.00
61374;DHT22;47242;48.158;-1.586;2023-07-02T17:49:37;22.70;55.10
61374;DHT22;47242;48.158;-1.586;2023-07-02T17:52:03;22.60;55.60
61374;DHT22;47242;48.158;-1.586;2023-07-02T17:54:37;22.60;55.80
61374;DHT22;47242;48.158;-1.586;2023-07-02T17:57:05;22.60;56.10
61374;DHT22;47242;48.158;-1.586;2023-07-02T17:59:32;22.60;55.90
61374;DHT22;47242;48.158;-1.586;2023-07-02T18:02:00;22.70;55.60
61374;DHT22;47242;48.158;-1.586;2023-07-02T18:04:26;22.70;56.70
61374;DHT22;47242;48.158;-1.586;2023-07-02T18:06:59;22.70;55.60
61374;DHT22;47242;48.158;-1.586;2023-07-02T18:09:25;22.70;55.80
61374;DHT22;47242;48.158;-1.586;2023-07-02T18:11:51;22.60;55.80
61374;DHT22;47242;48.158;-1.586;2023-07-02T18:14:18;22.50;56.40
61374;DHT22;47242;48.158;-1.586;2023-07-02T18:16:47;22.40;56.60
61374;DHT22;47242;48.158;-1.586;2023-07-02T18:19:19;22.40;57.30
61374;DHT22;47242;48.158;-1.586;2023-07-02T18:21:44;22.30;58.30
61374;DHT22;47242;48.158;-1.586;2023-07-02T18:24:10;22.30;58.50
61374;DHT22;47242;48.158;-1.586;2023-07-02T18:26:39;22.30;58.40
61374;DHT22;47242;48.158;-1.586;2023-07-02T18:29:04;22.30;58.90
61374;DHT22;47242;48.158;-1.586;2023-07-02T18:31:30;22.20;59.10
61374;DHT22;47242;48.158;-1.586;2023-07-02T18:33:56;22.20;59.70
61374;DHT22;47242;48.158;-1.586;2023-07-02T18:36:21;22.00;60.50
61374;DHT22;47242;48.158;-1.586;2023-07-02T18:38:50;22.00;60.80
61374;DHT22;47242;48.158;-1.586;2023-07-02T18:41:19;21.90;60.70
61374;DHT22;47242;48.158;-1.586;2023-07-02T18:43:44;21.90;61.10
61374;DHT22;47242;48.158;-1.586;2023-07-02T18:46:10;21.90;61.40
61374;DHT22;47242;48.158;-1.586;2023-07-02T18:48:36;21.80;62.60
61374;DHT22;47242;48.158;-1.586;2023-07-02T18:51:05;21.80;63.00
61374;DHT22;47242;48.158;-1.586;2023-07-02T18:53:33;21.80;64.20
61374;DHT22;47242;48.158;-1.586;2023-07-02T18:56:03;21.80;64.30
61374;DHT22;47242;48.158;-1.586;2023-07-02T18:58:31;21.70;64.30
61374;DHT22;47242;48.158;-1.586;2023-07-02T19:00:57;21.70;64.10
61374;DHT22;47242;48.158;-1.586;2023-07-02T19:03:23;21.70;64.20
61374;DHT22;47242;48.158;-1.586;2023-07-02T19:05:49;21.80;64.40
61374;DHT22;47242;48.158;-1.586;2023-07-02T19:08:17;21.70;64.20
61374;DHT22;47242;48.158;-1.586;2023-07-02T19:10:43;21.70;64.00
61374;DHT22;47242;48.158;-1.586;2023-07-02T19:13:11;21.70;64.60
61374;DHT22;47242;48.158;-1.586;2023-07-02T19:15:37;21.70;64.80
61374;DHT22;47242;48.158;-1.586;2023-07-02T19:18:04;21.60;65.60
61374;DHT22;47242;48.158;-1.586;2023-07-02T19:20:30;21.60;65.30
61374;DHT22;47242;48.158;-1.586;2023-07-02T19:22:55;21.50;65.80
61374;DHT22;47242;48.158;-1.586;2023-07-02T19:25:22;21.50;66.10
61374;DHT22;47242;48.158;-1.586;2023-07-02T19:27:47;21.30;67.30
61374;DHT22;47242;48.158;-1.586;2023-07-02T19:30:13;21.30;66.80
61374;DHT22;47242;48.158;-1.586;2023-07-02T19:32:39;21.20;66.90
61374;DHT22;47242;48.158;-1.586;2023-07-02T19:35:10;21.20;67.20
61374;DHT22;47242;48.158;-1.586;2023-07-02T19:37:36;21.20;67.00
61374;DHT22;47242;48.158;-1.586;2023-07-02T19:40:02;21.30;67.10
61374;DHT22;47242;48.158;-1.586;2023-07-02T19:42:29;21.20;67.60
61374;DHT22;47242;48.158;-1.586;2023-07-02T19:44:56;21.20;67.50
61374;DHT22;47242;48.158;-1.586;2023-07-02T19:47:23;21.20;67.50
61374;DHT22;47242;48.158;-1.586;2023-07-02T19:49:52;21.10;67.70
61374;DHT22;47242;48.158;-1.586;2023-07-02T19:52:19;21.00;68.10
61374;DHT22;47242;48.158;-1.586;2023-07-02T19:54:46;21.10;67.70